Time;durP1;ratioP1;P1;durP2;ratioP2;P2;SDS_P1;SDS_P2;PMS_P1;PMS_P2;Temp;Humidity;BMP_temperature;BMP_pressure;BME280_temperature;BME280_humidity;BME280_pressure;Samples;Min_cycle;Max_cycle;Signal;HPM_P1;HPM_P2
2023/08/17 04:02:07;;;;;;;2.93;1.67;;;18.00;99.90;;;;;;6091257;22;1335388;-71
2023/08/17 04:04:34;;;;;;;1.63;1.53;;;18.00;99.90;;;;;;6183668;23;20192;-72
2023/08/17 04:07:01;;;;;;;8.33;1.70;;;18.00;99.90;;;;;;6183956;23;20759;-70
2023/08/17 04:09:27;;;;;;;1.40;1.40;;;18.00;99.90;;;;;;6182454;23;20421;-71
2023/08/17 04:11:57;;;;;;;1.50;1.50;;;17.90;99.90;;;;;;6161650;23;20447;-71
2023/08/17 04:14:24;;;;;;;1.57;1.50;;;17.80;99.90;;;;;;6151632;23;20594;-67
2023/08/17 04:16:50;;;;;;;2.43;1.27;;;17.70;99.90;;;;;;6153552;23;20717;-67
2023/08/17 04:19:18;;;;;;;1.07;1.00;;;17.60;99.90;;;;;;6153081;23;20420;-67
2023/08/17 04:21:45;;;;;;;1.20;1.20;;;17.40;99.90;;;;;;6153812;23;20446;-68
2023/08/17 04:24:12;;;;;;;1.80;1.70;;;17.30;99.90;;;;;;6154127;23;20441;-67
2023/08/17 04:26:38;;;;;;;1.40;1.40;;;17.20;99.90;;;;;;6153011;23;20414;-67
2023/08/17 04:29:05;;;;;;;1.63;1.60;;;17.20;99.90;;;;;;6153856;23;20416;-67
2023/08/17 04:31:32;;;;;;;1.30;1.30;;;17.10;99.90;;;;;;6153549;23;20467;-67
2023/08/17 04:33:59;;;;;;;1.50;1.50;;;17.10;99.90;;;;;;6153935;23;20514;-67
2023/08/17 04:36:27;;;;;;;1.07;1.07;;;17.10;99.90;;;;;;6154529;23;20415;-67
2023/08/17 04:38:53;;;;;;;3.23;1.87;;;17.10;99.90;;;;;;6153694;23;20419;-68
2023/08/17 04:41:20;;;;;;;1.50;1.50;;;17.10;99.90;;;;;;6153849;23;20451;-67
2023/08/17 04:43:49;;;;;;;1.83;1.80;;;17.10;99.90;;;;;;6154315;23;20422;-67
2023/08/17 04:46:16;;;;;;;16.40;2.30;;;17.10;99.90;;;;;;6153815;23;20502;-68
2023/08/17 04:48:42;;;;;;;1.80;1.80;;;17.10;99.90;;;;;;6154028;23;20419;-68
2023/08/17 04:51:09;;;;;;;2.00;1.73;;;17.00;99.90;;;;;;6153892;23;20415;-68
2023/08/17 04:53:37;;;;;;;2.20;2.00;;;17.00;99.90;;;;;;6153556;23;20419;-68
2023/08/17 04:56:04;;;;;;;1.33;1.33;;;17.00;99.90;;;;;;6154225;23;20490;-68
2023/08/17 04:58:31;;;;;;;2.43;1.73;;;16.90;99.90;;;;;;6153637;23;20419;-68
2023/08/17 05:00:58;;;;;;;4.03;1.97;;;16.80;99.90;;;;;;6153424;23;20732;-67
2023/08/17 05:03:24;;;;;;;2.30;2.20;;;16.70;99.90;;;;;;6152650;23;20419;-68
2023/08/17 05:05:53;;;;;;;1.57;1.57;;;16.60;99.90;;;;;;6152713;23;20445;-68
2023/08/17 05:08:21;;;;;;;1.30;1.13;;;16.50;99.90;;;;;;6154287;23;20425;-68
2023/08/17 05:10:50;;;;;;;1.13;1.03;;;16.40;99.90;;;;;;6152991;23;20510;-67
2023/08/17 05:13:17;;;;;;;1.80;1.50;;;16.30;99.90;;;;;;6153802;23;20729;-67
2023/08/17 05:15:43;;;;;;;2.33;1.33;;;16.30;99.90;;;;;;6153318;23;20780;-65
2023/08/17 05:18:11;;;;;;;1.63;1.63;;;16.30;99.90;;;;;;6154241;23;20429;-67
2023/08/17 05:20:37;;;;;;;1.00;1.00;;;16.20;99.90;;;;;;6152300;23;20426;-67
2023/08/17 05:23:05;;;;;;;1.47;1.40;;;16.20;99.90;;;;;;6153622;23;20459;-67
2023/08/17 05:25:31;;;;;;;1.87;1.77;;;16.20;99.90;;;;;;6156106;23;20443;-68
2023/08/17 05:27:59;;;;;;;0.77;0.73;;;16.10;99.90;;;;;;6155757;23;20425;-67
2023/08/17 05:30:26;;;;;;;1.80;1.73;;;16.10;99.90;;;;;;6155931;23;20418;-67
2023/08/17 05:32:53;;;;;;;1.20;1.20;;;16.10;99.90;;;;;;6155723;23;20897;-67
2023/08/17 05:35:19;;;;;;;1.37;1.37;;;16.10;99.90;;;;;;6154979;23;20465;-67
2023/08/17 05:37:46;;;;;;;1.67;1.60;;;16.10;99.90;;;;;;6155379;23;20427;-66
2023/08/17 05:40:13;;;;;;;1.10;1.07;;;16.10;99.90;;;;;;6154111;23;20418;-68
2023/08/17 05:42:40;;;;;;;2.07;2.07;;;16.10;99.90;;;;;;6155709;23;20446;-67
2023/08/17 05:45:09;;;;;;;2.00;1.80;;;16.10;99.90;;;;;;6155581;23;20442;-68
2023/08/17 05:47:36;;;;;;;1.37;1.30;;;16.00;99.90;;;;;;6155514;23;20423;-67
2023/08/17 05:50:03;;;;;;;2.50;2.10;;;16.10;99.90;;;;;;6155505;23;20422;-68
2023/08/17 05:52:30;;;;;;;1.73;1.50;;;16.10;99.90;;;;;;6156150;23;20486;-67
2023/08/17 05:54:56;;;;;;;1.87;1.77;;;16.10;99.90;;;;;;6155720;23;20439;-68
2023/08/17 05:57:23;;;;;;;13.30;3.00;;;16.10;99.90;;;;;;6155561;23;20426;-68
2023/08/17 05:59:50;;;;;;;2.30;2.10;;;16.00;99.90;;;;;;6155460;23;20857;-67
2023/08/17 06:02:18;;;;;;;1.63;1.63;;;16.00;99.90;;;;;;6154893;23;20449;-67
2023/08/17 06:04:44;;;;;;;1.50;1.50;;;16.00;99.90;;;;;;6155560;23;20438;-68
2023/08/17 06:07:11;;;;;;;1.30;1.30;;;15.90;99.90;;;;;;6155780;23;20418;-68
2023/08/17 06:09:38;;;;;;;1.27;1.27;;;15.90;99.90;;;;;;6155178;23;21075;-67
2023/08/17 06:12:05;;;;;;;1.67;1.30;;;15.80;99.90;;;;;;6155683;23;20415;-68
2023/08/17 06:14:33;;;;;;;2.23;1.43;;;15.80;99.90;;;;;;6155508;23;20450;-70
2023/08/17 06:16:59;;;;;;;0.90;0.90;;;15.80;99.90;;;;;;6156181;23;20429;-68
2023/08/17 06:19:27;;;;;;;1.40;1.40;;;15.80;99.90;;;;;;6155800;23;20422;-68
2023/08/17 06:21:54;;;;;;;1.73;1.63;;;15.70;99.90;;;;;;6155905;23;20447;-68
2023/08/17 06:24:21;;;;;;;2.00;1.93;;;15.70;99.90;;;;;;6156041;23;20445;-68
2023/08/17 06:26:47;;;;;;;0.60;0.60;;;15.60;99.90;;;;;;6155306;23;20931;-68
2023/08/17 06:29:14;;;;;;;1.33;1.23;;;15.50;99.90;;;;;;6155530;23;20426;-68
2023/08/17 06:31:41;;;;;;;0.90;0.90;;;15.50;99.90;;;;;;6155219;23;20480;-68
2023/08/17 06:34:07;;;;;;;0.70;0.70;;;15.50;99.90;;;;;;6155830;23;20425;-68
2023/08/17 06:36:38;;;;;;;2.40;1.07;;;15.40;99.90;;;;;;6155811;23;20419;-68
2023/08/17 06:39:05;;;;;;;0.90;0.90;;;15.40;99.90;;;;;;6155780;23;20737;-69
2023/08/17 06:41:32;;;;;;;0.70;0.53;;;15.40;99.90;;;;;;6156225;23;20446;-68
2023/08/17 06:43:59;;;;;;;1.03;1.03;;;15.40;99.90;;;;;;6156085;23;20419;-69
2023/08/17 06:46:27;;;;;;;2.10;0.70;;;15.30;99.90;;;;;;6155445;23;20428;-69
2023/08/17 06:48:54;;;;;;;1.70;0.97;;;15.30;99.90;;;;;;6155166;23;20922;-69
2023/08/17 06:51:21;;;;;;;0.73;0.73;;;15.20;99.90;;;;;;6155796;23;20422;-68
2023/08/17 06:53:49;;;;;;;0.93;0.50;;;15.10;99.90;;;;;;6155521;23;20903;-68
2023/08/17 06:56:16;;;;;;;0.73;0.50;;;15.10;99.90;;;;;;6155869;23;20501;-68
2023/08/17 06:58:43;;;;;;;1.30;1.30;;;15.00;99.90;;;;;;6155613;23;20423;-67
2023/08/17 07:01:10;;;;;;;0.80;0.80;;;14.90;99.90;;;;;;6155520;23;20419;-67
2023/08/17 07:03:36;;;;;;;0.90;0.90;;;14.90;99.90;;;;;;6155564;23;20446;-68
2023/08/17 07:06:03;;;;;;;1.00;1.00;;;14.80;99.90;;;;;;6155753;23;20445;-68
2023/08/17 07:08:30;;;;;;;1.00;0.60;;;14.80;99.90;;;;;;6155039;23;20418;-67
2023/08/17 07:10:58;;;;;;;0.90;0.90;;;14.80;99.90;;;;;;6154783;23;20426;-68
2023/08/17 07:13:25;;;;;;;0.40;0.40;;;14.80;99.90;;;;;;6155473;23;20422;-67
2023/08/17 07:15:52;;;;;;;0.70;0.70;;;14.70;99.90;;;;;;6154928;23;20447;-68
2023/08/17 07:18:18;;;;;;;0.63;0.63;;;14.70;99.90;;;;;;6153987;23;20422;-67
2023/08/17 07:20:45;;;;;;;1.33;0.90;;;14.80;99.90;;;;;;6152936;23;20450;-67
2023/08/17 07:23:12;;;;;;;0.47;0.47;;;14.80;99.90;;;;;;6154251;23;21192;-68
2023/08/17 07:25:38;;;;;;;0.50;0.50;;;14.80;99.90;;;;;;6154953;23;20439;-67
2023/08/17 07:28:07;;;;;;;3.17;1.07;;;14.80;99.90;;;;;;6155078;23;20418;-67
2023/08/17 07:30:33;;;;;;;0.97;0.97;;;14.90;99.90;;;;;;6153924;23;20418;-68
2023/08/17 07:33:00;;;;;;;0.83;0.83;;;14.90;99.90;;;;;;6153696;23;20419;-69
2023/08/17 07:35:27;;;;;;;0.80;0.80;;;14.90;99.90;;;;;;6154822;23;20831;-68
2023/08/17 07:37:54;;;;;;;0.90;0.90;;;14.90;99.90;;;;;;6155090;23;20780;-69
2023/08/17 07:40:20;;;;;;;1.37;1.37;;;14.90;99.90;;;;;;6154614;23;20425;-68
2023/08/17 07:42:48;;;;;;;0.50;0.50;;;14.90;99.90;;;;;;6154327;23;20443;-68
2023/08/17 07:45:16;;;;;;;0.80;0.80;;;14.90;99.90;;;;;;6154182;23;20510;-69
2023/08/17 07:47:43;;;;;;;14.23;2.17;;;14.90;99.90;;;;;;6154463;23;20419;-68
2023/08/17 07:50:09;;;;;;;1.20;1.20;;;15.00;99.90;;;;;;6154259;23;20938;-69
2023/08/17 07:52:36;;;;;;;0.73;0.73;;;15.00;99.90;;;;;;6153811;23;20422;-69
2023/08/17 07:55:03;;;;;;;1.40;1.37;;;15.00;99.90;;;;;;6153926;23;20442;-69
2023/08/17 07:57:30;;;;;;;1.10;1.10;;;15.00;99.90;;;;;;6154551;23;20418;-69
2023/08/17 07:59:57;;;;;;;2.97;1.27;;;15.00;99.90;;;;;;6154374;23;20426;-69
2023/08/17 08:02:25;;;;;;;1.20;1.00;;;15.10;99.90;;;;;;6152945;23;20989;-68
2023/08/17 08:04:51;;;;;;;2.40;1.30;;;15.20;99.90;;;;;;6153824;23;20445;-69
2023/08/17 08:07:18;;;;;;;1.00;1.00;;;15.10;99.90;;;;;;6154338;23;20426;-69
2023/08/17 08:09:45;;;;;;;1.20;1.20;;;15.10;99.90;;;;;;6154382;23;20419;-68
2023/08/17 08:12:11;;;;;;;1.20;1.20;;;15.10;99.90;;;;;;6154225;23;20453;-68
2023/08/17 08:14:38;;;;;;;0.90;0.90;;;15.10;99.90;;;;;;6153799;23;20454;-70
2023/08/17 08:17:05;;;;;;;0.90;0.90;;;15.00;99.90;;;;;;6154551;23;20469;-69
2023/08/17 08:19:33;;;;;;;0.90;0.90;;;15.00;99.90;;;;;;6154117;23;20445;-68
2023/08/17 08:22:01;;;;;;;1.13;1.13;;;15.00;99.90;;;;;;6153952;23;20418;-68
2023/08/17 08:24:33;;;;;;;1.10;0.97;;;15.00;99.90;;;;;;6153631;23;20630;-68
2023/08/17 08:27:00;;;;;;;0.60;0.60;;;15.00;99.90;;;;;;6154353;23;20453;-68
2023/08/17 08:29:26;;;;;;;0.67;0.67;;;15.00;99.90;;;;;;6153755;23;20423;-68
2023/08/17 08:31:54;;;;;;;1.30;1.30;;;15.10;99.90;;;;;;6153956;23;20430;-67
2023/08/17 08:34:20;;;;;;;1.47;0.93;;;15.10;99.90;;;;;;6153692;23;20774;-68
2023/08/17 08:36:49;;;;;;;1.17;1.17;;;15.20;99.90;;;;;;6153984;23;20419;-67
2023/08/17 08:39:16;;;;;;;1.40;1.40;;;15.20;99.90;;;;;;6153871;23;20419;-68
2023/08/17 08:41:42;;;;;;;1.50;1.40;;;15.30;99.90;;;;;;6154268;23;20465;-68
2023/08/17 08:44:09;;;;;;;1.13;1.13;;;15.30;99.90;;;;;;6153809;23;20454;-68
2023/08/17 08:46:40;;;;;;;1.00;1.00;;;15.40;99.90;;;;;;6153308;23;20425;-68
2023/08/17 08:49:10;;;;;;;5.37;1.63;;;15.40;99.90;;;;;;6153901;23;20426;-67
2023/08/17 08:51:42;;;;;;;4.53;1.03;;;15.50;99.90;;;;;;6154150;23;20425;-68
2023/08/17 08:54:14;;;;;;;1.03;1.00;;;15.50;99.90;;;;;;6153793;23;20405;-68
2023/08/17 08:56:43;;;;;;;2.17;2.13;;;15.60;99.90;;;;;;6154015;23;20415;-68
2023/08/17 08:59:11;;;;;;;1.50;1.50;;;15.60;99.90;;;;;;6153678;23;20418;-68
2023/08/17 09:01:39;;;;;;;1.03;1.03;;;15.70;99.90;;;;;;6154045;23;20425;-67
2023/08/17 09:04:06;;;;;;;1.30;1.30;;;15.70;99.90;;;;;;6153596;23;20774;-68
2023/08/17 09:06:33;;;;;;;1.17;1.17;;;15.80;99.90;;;;;;6153615;23;20419;-68
2023/08/17 09:09:02;;;;;;;1.43;1.43;;;15.90;99.90;;;;;;6153495;23;20422;-68
2023/08/17 09:11:31;;;;;;;1.70;1.60;;;15.90;99.90;;;;;;6154129;23;20422;-68
2023/08/17 09:13:57;;;;;;;7.33;2.47;;;16.00;99.90;;;;;;6153240;23;20422;-68
2023/08/17 09:16:24;;;;;;;1.63;1.53;;;16.00;99.90;;;;;;6153956;23;20752;-68
2023/08/17 09:18:53;;;;;;;1.37;1.37;;;16.10;99.90;;;;;;6153671;23;20418;-68
2023/08/17 09:21:23;;;;;;;1.33;1.33;;;16.10;99.90;;;;;;6154244;23;20426;-68
2023/08/17 09:23:54;;;;;;;1.57;1.50;;;16.10;99.90;;;;;;6153483;23;20446;-68
2023/08/17 09:26:23;;;;;;;1.23;1.23;;;16.10;99.90;;;;;;6154236;23;20450;-68
2023/08/17 09:28:51;;;;;;;1.50;1.10;;;16.10;99.90;;;;;;6154163;23;20493;-68
2023/08/17 09:31:21;;;;;;;1.50;1.50;;;16.10;99.90;;;;;;6154598;23;20504;-68
2023/08/17 09:33:50;;;;;;;1.27;1.27;;;16.00;99.90;;;;;;6153894;23;20415;-68
2023/08/17 09:36:21;;;;;;;1.43;1.33;;;16.00;99.90;;;;;;6154169;23;20422;-68
2023/08/17 09:38:49;;;;;;;0.73;0.73;;;15.90;99.90;;;;;;6154247;23;20685;-68
2023/08/17 09:41:16;;;;;;;0.50;0.50;;;16.00;99.90;;;;;;6154008;23;20419;-68
2023/08/17 09:43:43;;;;;;;4.23;1.50;;;15.90;99.90;;;;;;6153516;23;20451;-67
2023/08/17 09:46:11;;;;;;;1.30;1.30;;;15.80;99.90;;;;;;6153945;23;20439;-68
2023/08/17 09:48:38;;;;;;;1.70;1.70;;;15.90;99.90;;;;;;6154003;23;20426;-68
2023/08/17 09:51:08;;;;;;;0.80;0.80;;;15.80;99.90;;;;;;6153621;23;20426;-68
2023/08/17 09:53:37;;;;;;;2.20;1.83;;;15.80;99.90;;;;;;6153235;23;20412;-67
2023/08/17 09:56:07;;;;;;;0.90;0.90;;;15.70;99.90;;;;;;6153436;23;20438;-68
2023/08/17 09:58:34;;;;;;;1.80;1.70;;;15.80;99.90;;;;;;6153819;23;20422;-68
2023/08/17 10:01:04;;;;;;;1.13;1.13;;;15.90;99.90;;;;;;6153188;23;20425;-68
2023/08/17 10:03:34;;;;;;;1.90;1.33;;;15.80;99.90;;;;;;6153802;23;20431;-68
2023/08/17 10:06:06;;;;;;;1.40;1.40;;;15.80;99.90;;;;;;6153899;23;20493;-68
2023/08/17 10:08:36;;;;;;;2.03;1.00;;;15.90;99.90;;;;;;6153840;23;20814;-68
2023/08/17 10:11:07;;;;;;;0.97;0.97;;;15.80;99.90;;;;;;6155278;23;20759;-68
2023/08/17 10:13:38;;;;;;;0.80;0.80;;;15.80;99.90;;;;;;6155714;23;20487;-68
2023/08/17 10:16:14;;;;;;;0.90;0.80;;;15.80;99.90;;;;;;6155771;23;20451;-68
2023/08/17 10:18:50;;;;;;;1.30;1.30;;;15.70;99.90;;;;;;6155452;23;20410;-68
2023/08/17 10:21:23;;;;;;;1.20;1.10;;;15.70;99.90;;;;;;6154353;23;20896;-67
2023/08/17 10:23:50;;;;;;;1.27;1.23;;;15.70;99.90;;;;;;6155434;23;20430;-67
2023/08/17 10:26:17;;;;;;;1.20;1.20;;;15.80;99.90;;;;;;6155675;23;20419;-68
2023/08/17 10:28:45;;;;;;;1.33;1.27;;;15.70;99.90;;;;;;6155245;23;20422;-67
2023/08/17 10:31:13;;;;;;;0.97;0.97;;;15.70;99.90;;;;;;6155300;23;20423;-67
2023/08/17 10:33:44;;;;;;;0.80;0.80;;;15.70;99.90;;;;;;6155566;23;20421;-67
2023/08/17 10:36:13;;;;;;;2.23;2.03;;;15.60;99.90;;;;;;6155256;23;20522;-67
2023/08/17 10:38:39;;;;;;;1.00;1.00;;;15.60;99.90;;;;;;6155120;23;20931;-67
2023/08/17 10:41:11;;;;;;;0.90;0.90;;;15.60;99.90;;;;;;6154488;23;20419;-67
2023/08/17 10:43:56;;;;;;;1.20;1.20;;;15.70;99.90;;;;;;6155317;23;20462;-67
2023/08/17 10:46:22;;;;;;;2.83;1.73;;;15.70;99.90;;;;;;6155584;23;20399;-67
2023/08/17 10:48:49;;;;;;;1.20;1.00;;;15.70;99.90;;;;;;6155072;23;20414;-67
2023/08/17 10:51:24;;;;;;;0.80;0.73;;;15.60;99.90;;;;;;6154827;23;20415;-67
2023/08/17 10:53:53;;;;;;;1.10;1.10;;;15.50;99.90;;;;;;6155262;23;20405;-67
2023/08/17 10:56:20;;;;;;;1.40;1.40;;;15.40;99.90;;;;;;6155233;23;20414;-67
2023/08/17 10:58:47;;;;;;;1.30;1.20;;;15.30;99.90;;;;;;6154968;23;20422;-67
2023/08/17 11:01:20;;;;;;;4.63;1.40;;;15.30;99.90;;;;;;6154858;23;20422;-67
2023/08/17 11:03:46;;;;;;;1.50;1.37;;;15.30;99.90;;;;;;6153772;23;20954;-67
2023/08/17 11:06:18;;;;;;;1.10;1.10;;;15.30;99.90;;;;;;6155070;23;20446;-67
2023/08/17 11:08:56;;;;;;;1.20;1.20;;;15.20;99.90;;;;;;6154814;23;20876;-68
2023/08/17 11:11:23;;;;;;;0.80;0.80;;;15.20;99.90;;;;;;6154775;23;20425;-67
2023/08/17 11:13:50;;;;;;;1.30;1.20;;;15.20;99.90;;;;;;6154894;23;20415;-67
2023/08/17 11:16:19;;;;;;;0.97;0.97;;;15.20;99.90;;;;;;6155150;23;20415;-67
2023/08/17 11:18:46;;;;;;;0.90;0.90;;;15.20;99.90;;;;;;6154892;23;20458;-67
2023/08/17 11:21:14;;;;;;;1.07;0.80;;;15.30;99.90;;;;;;6154751;23;20419;-67
2023/08/17 11:23:42;;;;;;;1.03;1.03;;;15.30;99.90;;;;;;6154519;23;20531;-68
2023/08/17 11:26:09;;;;;;;0.90;0.90;;;15.20;99.90;;;;;;6154343;23;20439;-67
2023/08/17 11:28:38;;;;;;;1.03;1.03;;;15.20;99.90;;;;;;6155004;23;20426;-67
2023/08/17 11:31:06;;;;;;;1.00;1.00;;;15.30;99.90;;;;;;6154615;23;20425;-67
2023/08/17 11:33:33;;;;;;;0.80;0.80;;;15.30;99.90;;;;;;6154944;23;20414;-67
2023/08/17 11:36:01;;;;;;;4.33;1.00;;;15.30;99.90;;;;;;6154094;23;20438;-68
2023/08/17 11:38:31;;;;;;;1.17;1.07;;;15.30;99.90;;;;;;6154861;23;20418;-68
2023/08/17 11:41:00;;;;;;;1.40;1.27;;;15.30;99.90;;;;;;6154197;23;20891;-69
2023/08/17 11:43:29;;;;;;;1.23;1.03;;;15.40;99.90;;;;;;6154407;23;20530;-68
2023/08/17 11:45:56;;;;;;;3.13;2.37;;;15.40;99.90;;;;;;6154233;23;20443;-68
2023/08/17 11:48:25;;;;;;;1.70;1.63;;;15.50;99.90;;;;;;6154848;23;20747;-69
2023/08/17 11:50:53;;;;;;;1.30;1.30;;;15.50;99.90;;;;;;6154326;23;20454;-68
2023/08/17 11:53:19;;;;;;;1.93;1.73;;;15.50;99.90;;;;;;6154320;23;20415;-67
2023/08/17 11:55:46;;;;;;;1.33;1.33;;;15.50;99.90;;;;;;6153684;23;20448;-68
2023/08/17 11:58:14;;;;;;;1.87;1.77;;;15.50;99.90;;;;;;6154280;23;20419;-68
2023/08/17 12:00:44;;;;;;;4.10;1.87;;;15.60;99.90;;;;;;6154367;23;20426;-68
2023/08/17 12:03:15;;;;;;;1.70;1.60;;;15.60;99.90;;;;;;6154231;23;20418;-69
2023/08/17 12:05:42;;;;;;;0.77;0.77;;;15.60;99.90;;;;;;6154331;23;20954;-68
2023/08/17 12:08:09;;;;;;;1.20;1.20;;;15.60;99.90;;;;;;6154608;23;20419;-68
2023/08/17 12:10:38;;;;;;;2.10;1.90;;;15.70;99.90;;;;;;6154389;23;20441;-67
2023/08/17 12:13:06;;;;;;;1.13;1.03;;;15.70;99.90;;;;;;6153835;23;20896;-69
2023/08/17 12:15:35;;;;;;;1.43;1.43;;;15.70;99.90;;;;;;6154387;23;20452;-68
2023/08/17 12:18:04;;;;;;;0.93;0.93;;;15.70;99.90;;;;;;6154490;23;20923;-68
2023/08/17 12:20:35;;;;;;;1.40;1.40;;;15.80;99.90;;;;;;6154300;23;20498;-68
2023/08/17 12:23:03;;;;;;;2.10;1.60;;;15.70;99.90;;;;;;6154220;23;20409;-68
2023/08/17 12:25:30;;;;;;;3.50;1.93;;;15.80;99.90;;;;;;6154199;23;20438;-68
2023/08/17 12:27:59;;;;;;;1.50;1.50;;;15.80;99.90;;;;;;6154673;23;20426;-68
2023/08/17 12:30:27;;;;;;;1.80;1.80;;;15.90;99.90;;;;;;6154018;23;20419;-68
2023/08/17 12:32:55;;;;;;;2.23;2.17;;;15.90;99.90;;;;;;6153823;23;20425;-68
2023/08/17 12:35:24;;;;;;;0.90;0.90;;;15.90;99.90;;;;;;6154272;23;20435;-68
2023/08/17 12:37:51;;;;;;;1.07;1.03;;;15.90;99.90;;;;;;6154421;23;20419;-69
2023/08/17 12:40:18;;;;;;;0.80;0.80;;;15.90;99.90;;;;;;6153404;23;20473;-69
2023/08/17 12:42:44;;;;;;;1.50;1.50;;;16.00;99.90;;;;;;6154004;23;20426;-69
2023/08/17 12:45:11;;;;;;;1.83;1.83;;;16.00;99.90;;;;;;6153996;23;20993;-68
2023/08/17 12:47:38;;;;;;;2.67;1.50;;;16.00;99.90;;;;;;6154410;23;20426;-69
2023/08/17 12:50:07;;;;;;;1.10;1.10;;;16.10;99.90;;;;;;6154027;23;20423;-69
2023/08/17 12:52:34;;;;;;;1.60;1.50;;;16.10;99.90;;;;;;6154024;23;20437;-69
2023/08/17 12:55:01;;;;;;;2.00;1.53;;;16.10;99.90;;;;;;6154546;23;20887;-69
2023/08/17 12:57:27;;;;;;;3.93;2.20;;;16.10;99.90;;;;;;6153941;23;20908;-69
2023/08/17 12:59:54;;;;;;;1.57;1.47;;;16.10;99.90;;;;;;6153991;23;20419;-68
2023/08/17 13:02:21;;;;;;;1.50;1.50;;;16.10;99.90;;;;;;6153760;23;20418;-69
2023/08/17 13:04:48;;;;;;;1.50;1.40;;;16.00;99.90;;;;;;6153190;23;20450;-68
2023/08/17 13:07:16;;;;;;;1.50;1.50;;;16.10;99.90;;;;;;6153238;23;20425;-68
2023/08/17 13:09:45;;;;;;;2.10;1.03;;;16.10;99.90;;;;;;6153235;23;20890;-69
2023/08/17 13:12:11;;;;;;;0.53;0.53;;;16.20;99.90;;;;;;6153769;23;20462;-68
2023/08/17 13:14:38;;;;;;;0.97;0.97;;;16.10;99.90;;;;;;6152549;23;20970;-68
2023/08/17 13:17:05;;;;;;;0.60;0.60;;;16.00;99.90;;;;;;6154350;23;20728;-68
2023/08/17 13:19:31;;;;;;;0.93;0.93;;;15.90;99.90;;;;;;6154042;23;20422;-68
2023/08/17 13:21:58;;;;;;;1.00;1.00;;;15.80;99.90;;;;;;6154018;23;20422;-68
2023/08/17 13:24:26;;;;;;;2.07;1.03;;;15.80;99.90;;;;;;6152964;23;20451;-68
2023/08/17 13:26:53;;;;;;;1.70;1.23;;;15.80;99.90;;;;;;6153244;23;20426;-67
2023/08/17 13:29:20;;;;;;;1.00;1.00;;;15.90;99.90;;;;;;6153825;23;20419;-67
2023/08/17 13:31:48;;;;;;;4.43;1.80;;;15.90;99.90;;;;;;6153608;23;20423;-68
2023/08/17 13:34:15;;;;;;;0.60;0.60;;;15.90;99.90;;;;;;6153735;23;20435;-68
2023/08/17 13:36:41;;;;;;;1.50;1.43;;;15.90;99.90;;;;;;6153985;23;20505;-68
2023/08/17 13:39:08;;;;;;;0.97;0.97;;;15.90;99.90;;;;;;6153694;23;20429;-68
2023/08/17 13:41:36;;;;;;;0.87;0.87;;;16.00;99.90;;;;;;6163641;23;20808;-68
2023/08/17 13:44:03;;;;;;;2.73;1.07;;;15.90;99.90;;;;;;6153266;23;20449;-68
2023/08/17 13:46:30;;;;;;;1.00;1.00;;;15.90;99.90;;;;;;6155947;23;20419;-68
2023/08/17 13:48:57;;;;;;;1.03;1.03;;;15.90;99.90;;;;;;6155348;23;20399;-68
2023/08/17 13:51:24;;;;;;;1.03;1.03;;;15.90;99.90;;;;;;6156232;23;20422;-68
2023/08/17 13:53:50;;;;;;;1.40;1.30;;;16.00;99.90;;;;;;6155408;23;20422;-67
2023/08/17 13:56:17;;;;;;;1.40;1.40;;;16.00;99.90;;;;;;6155990;23;20418;-68
2023/08/17 13:58:45;;;;;;;1.97;1.97;;;16.10;99.90;;;;;;6155627;23;20425;-68
2023/08/17 14:01:12;;;;;;;1.37;0.93;;;16.10;99.90;;;;;;6155506;23;20425;-68
2023/08/17 14:03:39;;;;;;;1.47;1.47;;;16.10;99.90;;;;;;6155033;23;20731;-68
2023/08/17 14:06:06;;;;;;;0.97;0.97;;;16.10;99.90;;;;;;6154328;23;20444;-68
2023/08/17 14:08:32;;;;;;;3.03;2.00;;;16.10;99.90;;;;;;6155463;23;20753;-68
2023/08/17 14:11:00;;;;;;;2.33;2.03;;;16.10;99.90;;;;;;6154811;23;20756;-68
2023/08/17 14:13:27;;;;;;;0.80;0.80;;;16.10;99.90;;;;;;6155993;23;20753;-69
2023/08/17 14:15:55;;;;;;;2.27;2.00;;;16.10;99.90;;;;;;6155260;23;20443;-67
2023/08/17 14:18:22;;;;;;;1.00;1.00;;;16.10;99.90;;;;;;6155365;23;20425;-69
2023/08/17 14:20:49;;;;;;;1.90;1.80;;;16.20;99.90;;;;;;6155291;23;20757;-67
2023/08/17 14:23:16;;;;;;;2.27;1.80;;;16.20;99.90;;;;;;6155342;23;20418;-69
2023/08/17 14:25:42;;;;;;;4.43;1.73;;;16.30;99.90;;;;;;6155270;23;20457;-68
2023/08/17 14:28:09;;;;;;;12.50;1.20;;;16.20;99.90;;;;;;6154859;23;20422;-68
2023/08/17 14:30:36;;;;;;;0.83;0.83;;;16.30;99.90;;;;;;6154398;23;20429;-68
2023/08/17 14:33:04;;;;;;;1.60;1.57;;;16.30;99.90;;;;;;6156338;23;20418;-69
2023/08/17 14:35:31;;;;;;;0.93;0.93;;;16.30;99.90;;;;;;6155821;23;20511;-69
2023/08/17 14:38:00;;;;;;;1.80;1.13;;;16.40;99.90;;;;;;6156147;23;20418;-67
2023/08/17 14:40:27;;;;;;;1.27;1.27;;;16.40;99.90;;;;;;6155215;23;20903;-69
2023/08/17 14:42:54;;;;;;;1.30;1.30;;;16.50;99.90;;;;;;6155783;23;20518;-68
2023/08/17 14:45:20;;;;;;;2.13;1.97;;;16.50;99.90;;;;;;6155595;23;20458;-68
2023/08/17 14:47:47;;;;;;;1.53;1.50;;;16.50;99.90;;;;;;6156030;23;20419;-68
2023/08/17 14:50:15;;;;;;;0.80;0.80;;;16.60;99.90;;;;;;6155555;23;20429;-67
2023/08/17 14:52:42;;;;;;;1.30;0.90;;;16.60;99.90;;;;;;6155585;23;20419;-67
2023/08/17 14:55:09;;;;;;;1.43;0.93;;;16.70;99.90;;;;;;6155691;23;20436;-69
2023/08/17 14:57:35;;;;;;;2.33;1.30;;;16.70;99.90;;;;;;6155223;23;20816;-69
2023/08/17 15:00:03;;;;;;;1.50;1.50;;;16.80;99.90;;;;;;6154538;23;20421;-67
2023/08/17 15:02:31;;;;;;;2.10;1.60;;;16.80;99.90;;;;;;6154779;23;20502;-67
2023/08/17 15:04:57;;;;;;;3.30;1.47;;;16.80;99.90;;;;;;6155258;23;20450;-70
2023/08/17 15:07:25;;;;;;;1.37;1.37;;;16.90;99.90;;;;;;6155284;23;20426;-71
2023/08/17 15:09:53;;;;;;;0.83;0.83;;;16.90;99.90;;;;;;6154872;23;20422;-70
2023/08/17 15:12:19;;;;;;;1.30;1.30;;;16.90;99.90;;;;;;6155152;23;20426;-70
2023/08/17 15:14:46;;;;;;;1.30;1.30;;;16.90;99.90;;;;;;6154624;23;20451;-70
2023/08/17 15:17:13;;;;;;;1.47;1.30;;;16.90;99.90;;;;;;6154596;23;20510;-70
2023/08/17 15:19:39;;;;;;;3.10;1.10;;;16.90;99.90;;;;;;6154072;23;20419;-70
2023/08/17 15:22:06;;;;;;;1.33;1.33;;;16.90;99.90;;;;;;6154724;23;20802;-71
2023/08/17 15:24:34;;;;;;;1.20;1.20;;;16.90;99.90;;;;;;6154406;23;20458;-68
2023/08/17 15:27:01;;;;;;;0.73;0.73;;;16.90;99.90;;;;;;6154606;23;20430;-68
2023/08/17 15:29:28;;;;;;;1.73;1.63;;;16.80;99.90;;;;;;6153169;23;20425;-69
2023/08/17 15:31:54;;;;;;;1.70;1.23;;;16.80;99.90;;;;;;6153907;23;20427;-69
2023/08/17 15:34:21;;;;;;;1.30;1.30;;;16.80;99.90;;;;;;6153921;23;20462;-67
2023/08/17 15:36:48;;;;;;;1.60;1.50;;;16.80;99.90;;;;;;6154430;23;20423;-69
2023/08/17 15:39:14;;;;;;;1.73;1.63;;;16.80;99.90;;;;;;6153474;23;20749;-69
2023/08/17 15:41:42;;;;;;;1.30;1.30;;;16.80;99.90;;;;;;6154190;23;20450;-69
2023/08/17 15:44:09;;;;;;;1.10;1.10;;;16.80;99.90;;;;;;6153899;23;20420;-68
2023/08/17 15:46:36;;;;;;;1.50;1.50;;;16.80;99.90;;;;;;6153711;23;20419;-69
2023/08/17 15:49:02;;;;;;;3.00;2.13;;;16.80;99.90;;;;;;6153736;23;20418;-69
2023/08/17 15:51:29;;;;;;;1.70;1.70;;;16.80;99.90;;;;;;6153530;23;20419;-69
2023/08/17 15:53:56;;;;;;;0.90;0.90;;;16.80;99.90;;;;;;6153869;23;20422;-68
2023/08/17 15:56:23;;;;;;;1.13;1.13;;;16.70;99.90;;;;;;6153836;23;20415;-68
2023/08/17 15:58:51;;;;;;;1.53;1.43;;;16.70;99.90;;;;;;6153546;23;20419;-68
2023/08/17 16:01:17;;;;;;;1.03;1.03;;;16.80;99.90;;;;;;6153520;23;20427;-69
2023/08/17 16:03:45;;;;;;;1.30;1.30;;;16.80;99.90;;;;;;6154186;23;20420;-69
2023/08/17 16:06:14;;;;;;;1.63;1.03;;;16.80;99.90;;;;;;6152549;23;20474;-67
2023/08/17 16:08:41;;;;;;;2.50;1.40;;;16.80;99.90;;;;;;6153617;23;20474;-66
2023/08/17 16:11:08;;;;;;;1.60;1.40;;;16.80;99.90;;;;;;6153311;23;20423;-68
2023/08/17 16:13:34;;;;;;;1.60;1.50;;;16.70;99.90;;;;;;6153833;23;20483;-69
2023/08/17 16:16:03;;;;;;;2.00;1.53;;;16.70;99.90;;;;;;6152976;23;20467;-69
2023/08/17 16:18:29;;;;;;;2.23;1.67;;;16.70;99.90;;;;;;6153904;23;20429;-69
2023/08/17 16:20:56;;;;;;;1.60;1.60;;;16.70;99.90;;;;;;6153282;23;20427;-69
2023/08/17 16:23:23;;;;;;;3.63;3.33;;;16.60;99.90;;;;;;6153916;23;20428;-69
2023/08/17 16:25:50;;;;;;;1.53;1.43;;;16.70;99.90;;;;;;6153781;23;20988;-70
2023/08/17 16:28:17;;;;;;;2.50;2.17;;;16.70;99.90;;;;;;6153921;23;20418;-69
2023/08/17 16:30:44;;;;;;;1.20;1.20;;;16.60;99.90;;;;;;6152897;23;20903;-70
2023/08/17 16:33:12;;;;;;;1.80;1.80;;;16.60;99.90;;;;;;6154331;23;20756;-68
2023/08/17 16:35:39;;;;;;;1.60;1.60;;;16.50;99.90;;;;;;6154193;23;20442;-70
2023/08/17 16:38:06;;;;;;;1.43;1.30;;;16.50;99.90;;;;;;6153198;23;20426;-71
2023/08/17 16:40:33;;;;;;;1.33;1.33;;;16.50;99.90;;;;;;6154871;23;20419;-71
2023/08/17 16:43:00;;;;;;;2.00;1.80;;;16.50;99.90;;;;;;6154965;23;20801;-71
2023/08/17 16:45:27;;;;;;;2.87;1.77;;;16.50;99.90;;;;;;6154585;23;20450;-71
2023/08/17 16:47:54;;;;;;;2.23;2.13;;;16.40;99.90;;;;;;6154667;23;20514;-72